Buena Vista, NM (87712)

8:26 AM MST on March 06, 2015 (GMT -0700)
Pendaries RV Resort | Change Station
CLOSE
Current Station
Personal Weather Station
Location: Rociada, NM
Elevation: 7750 ft
Nearby Weather Stations

Elev 7750 ft 35.85 °N, 105.40 °W | Updated 7 seconds ago

Clear
Clear
35.2 °F
Feels Like 35 °F
N
0.0
Wind Variable Wind from West
Gusts 0.0 mph

Today
High -- | Low -- °F
--% Chance of Precip.
Yesterday
High -- | Low -- °F
Precip. -- in
6:24 AM 6:00 PM
Full, 99% visible
Pressure 30.33 in
Visibility 10.0 miles
Clouds Clear
Windchill 35 °F
Dew Point 18 °F
Humidity 49%
Rainfall in
Snow Depth Not available.
UV 1 out of 12
Pollen 5.30 out of 12
Air Quality Not available.
Flu Activity Not available.
METAR KLVS 061453Z AUTO 02004KT 10SM CLR 00/M11 A3035 RMK AO2 SLP270 T00001106 53013

More Conditions Fewer Conditions

Pressure 30.33 in
Visibility 10.0 miles
Clouds Clear
Windchill 35 °F
Dew Point 18 °F
Humidity 49%
Rainfall in
Snow Depth Not available.
UV 1 out of 12
Pollen 5.30 out of 12
Air Quality Not available.
Flu Activity Not available.
METAR KLVS 061453Z AUTO 02004KT 10SM CLR 00/M11 A3035 RMK AO2 SLP270 T00001106 53013

More Conditions Fewer Conditions

10-Day Weather Forecast

Almanac

Astronomy

Mar. 06, 2015 Rise Set
Actual Time
Civil Twilight
Nautical Twilight
Astronomical Twilight
Moon
Length of Visible Light
Length of Day
Tomorrow will be .
, % of the Moon is Illuminated

Today's Extremes

State Highs State Lows

Community

WunderPhotos

Upload Photos

1,803,299 photos uploaded!

WunderBlogs® & News

Nearby

Air Quality

  Air Quality AQ Index Pollutant
Not available.

Snow Depth

Station Depth Elevation

Earthquake Activity

City Distance Mag. Time & Date
Minimum magnitude displayed is 2.5.

Coastal Water Temperatures

Place Temperature

Nearby Weather Stations